FVRG Airport Information

Runway Information
Airport Frequencies
Airport Navaids
Airport Weather Information & NOTAM
ADDS - METARS form results

(1045 UTC 23 May 2019)
Data provider http://aviationweather.gov/metar/data/
 
METAR text: FVRG 231000Z 09009KT 040V140 CAVOK 21/03 Q1027 NOSIG
Conditions at: FVRG (HARARE/MUGABE , ZW) observed 1000 UTC 23 May 2019
Temperature: 21.0°C (70°F)
Dewpoint: 3.0°C (37°F) [RH = 30%]
Pressure (altimeter): 30.32 inches Hg (1027.0 mb)
Winds: from the E (90 degrees) at 10 MPH (9 knots; 4.6 m/s)
Visibility: 6 or more miles (10+ km)
Ceiling: ceiling and visibility are OK
Clouds: unknown
Weather: no significant weather observed at this time

Forecast for: FVRG (HARARE/MUGABE , ZW)
Text: TAF FVRG 231000Z 2312/2418 10009KT CAVOK
Forecast period: 1200 UTC 23 May 2019 to 1800 UTC 24 May 2019
Forecast type: FROM: standard forecast or significant change
Winds: from the E (100 degrees) at 10 MPH (9 knots; 4.6 m/s)
Visibility: 6 or more miles 10+ km)
Ceiling: unknown
Clouds: missing
Weather: NSW  (no significant weather)